Solrod, Denmark
Current Conditions -  °F | °C
As of 10:50 AM on Saturday 29 Nov 2014 (Local Time) from EKRK Reporting Station
Broken Clouds Broken Clouds  
Wind Chill: 29°   Ceiling: 2500
Heat Index: 39°   Visibility: 6mi
Dew Point: 30°   Wind: 21mph
Humidity: 70%   Direction: 120°ESE
Pressure: 30.3"   Gusts: NA
Location:  55.54°N, 12.18°E
Report Text: EKRK 290950Z AUTO 12018KT 9999NDV FEW021/// BKN025///BKN030/// 04/M01 Q1026
Loading
Personal Weather Stations






























Interactive Weather Map New forecast layout! Learn more

10-Day Weather Forecast

Advertisements
Track Severe Weather on mobile